sensor_id;sensor_type;location;lat;lon;timestamp;pressure;altitude;pressure_sealevel;temperature;humidity
25430;BME280;13360;48.152;-1.788;2023-02-13T00:00:23;103334.44;;;6.19;100.00
25430;BME280;13360;48.152;-1.788;2023-02-13T00:02:49;103312.44;;;6.12;100.00
25430;BME280;13360;48.152;-1.788;2023-02-13T00:05:15;103307.16;;;6.04;100.00
25430;BME280;13360;48.152;-1.788;2023-02-13T00:07:41;103320.66;;;6.05;100.00
25430;BME280;13360;48.152;-1.788;2023-02-13T00:10:07;103313.50;;;6.04;100.00
25430;BME280;13360;48.152;-1.788;2023-02-13T00:12:32;103309.03;;;6.03;100.00
25430;BME280;13360;48.152;-1.788;2023-02-13T00:14:58;103311.13;;;6.01;100.00
25430;BME280;13360;48.152;-1.788;2023-02-13T00:17:24;103279.03;;;5.95;100.00
25430;BME280;13360;48.152;-1.788;2023-02-13T00:19:50;103286.19;;;5.96;100.00
25430;BME280;13360;48.152;-1.788;2023-02-13T00:22:15;103279.88;;;5.96;100.00
25430;BME280;13360;48.152;-1.788;2023-02-13T00:24:41;103273.75;;;5.94;100.00
25430;BME280;13360;48.152;-1.788;2023-02-13T00:27:07;103279.66;;;5.91;100.00
25430;BME280;13360;48.152;-1.788;2023-02-13T00:29:32;103260.81;;;5.88;100.00
25430;BME280;13360;48.152;-1.788;2023-02-13T00:31:57;103255.06;;;5.82;100.00
25430;BME280;13360;48.152;-1.788;2023-02-13T00:34:24;103265.88;;;5.84;100.00
25430;BME280;13360;48.152;-1.788;2023-02-13T00:36:49;103278.53;;;5.85;100.00
25430;BME280;13360;48.152;-1.788;2023-02-13T00:39:14;103289.09;;;5.88;100.00
25430;BME280;13360;48.152;-1.788;2023-02-13T00:41:40;103271.16;;;5.86;100.00
25430;BME280;13360;48.152;-1.788;2023-02-13T00:44:05;103267.56;;;5.85;100.00
25430;BME280;13360;48.152;-1.788;2023-02-13T00:46:31;103246.41;;;5.79;100.00
25430;BME280;13360;48.152;-1.788;2023-02-13T00:48:56;103254.66;;;5.79;100.00
25430;BME280;13360;48.152;-1.788;2023-02-13T00:51:21;103269.00;;;5.81;100.00
25430;BME280;13360;48.152;-1.788;2023-02-13T00:53:46;103270.06;;;5.80;100.00
25430;BME280;13360;48.152;-1.788;2023-02-13T00:56:12;103272.16;;;5.78;100.00
25430;BME280;13360;48.152;-1.788;2023-02-13T00:58:37;103267.94;;;5.75;100.00
25430;BME280;13360;48.152;-1.788;2023-02-13T01:01:03;103279.94;;;5.74;100.00
25430;BME280;13360;48.152;-1.788;2023-02-13T01:03:29;103288.16;;;5.74;100.00
25430;BME280;13360;48.152;-1.788;2023-02-13T01:05:55;103282.25;;;5.71;100.00
25430;BME280;13360;48.152;-1.788;2023-02-13T01:08:21;103293.22;;;5.71;100.00
25430;BME280;13360;48.152;-1.788;2023-02-13T01:10:47;103283.09;;;5.71;100.00
25430;BME280;13360;48.152;-1.788;2023-02-13T01:13:13;103277.81;;;5.70;100.00
25430;BME280;13360;48.152;-1.788;2023-02-13T01:15:40;103257.53;;;5.64;100.00
25430;BME280;13360;48.152;-1.788;2023-02-13T01:18:05;103227.59;;;5.63;100.00
25430;BME280;13360;48.152;-1.788;2023-02-13T01:20:31;103201.81;;;5.57;100.00
25430;BME280;13360;48.152;-1.788;2023-02-13T01:22:56;103196.53;;;5.56;100.00
25430;BME280;13360;48.152;-1.788;2023-02-13T01:25:22;103187.25;;;5.57;100.00
25430;BME280;13360;48.152;-1.788;2023-02-13T01:27:48;103183.88;;;5.55;100.00
25430;BME280;13360;48.152;-1.788;2023-02-13T01:30:17;103186.59;;;5.55;100.00
25430;BME280;13360;48.152;-1.788;2023-02-13T01:32:44;103177.53;;;5.54;100.00
25430;BME280;13360;48.152;-1.788;2023-02-13T01:35:11;103163.19;;;5.52;100.00
25430;BME280;13360;48.152;-1.788;2023-02-13T01:37:37;103162.75;;;5.48;100.00
25430;BME280;13360;48.152;-1.788;2023-02-13T01:40:04;103158.97;;;5.49;100.00
25430;BME280;13360;48.152;-1.788;2023-02-13T01:42:32;103160.03;;;5.48;100.00
25430;BME280;13360;48.152;-1.788;2023-02-13T01:45:27;103158.31;;;5.47;100.00
25430;BME280;13360;48.152;-1.788;2023-02-13T01:47:59;103161.28;;;5.46;100.00
25430;BME280;13360;48.152;-1.788;2023-02-13T01:53:15;103156.78;;;5.38;100.00
25430;BME280;13360;48.152;-1.788;2023-02-13T01:55:49;103153.66;;;5.41;100.00
25430;BME280;13360;48.152;-1.788;2023-02-13T01:58:21;103164.44;;;5.43;100.00
25430;BME280;13360;48.152;-1.788;2023-02-13T02:00:47;103162.31;;;5.45;100.00
25430;BME280;13360;48.152;-1.788;2023-02-13T02:03:36;103150.50;;;5.44;100.00
25430;BME280;13360;48.152;-1.788;2023-02-13T02:06:03;103143.69;;;5.34;100.00
25430;BME280;13360;48.152;-1.788;2023-02-13T02:08:29;103176.97;;;5.24;100.00
25430;BME280;13360;48.152;-1.788;2023-02-13T02:10:57;103204.63;;;5.29;100.00
25430;BME280;13360;48.152;-1.788;2023-02-13T02:13:25;103199.56;;;5.33;100.00
25430;BME280;13360;48.152;-1.788;2023-02-13T02:15:51;103178.06;;;5.30;100.00
25430;BME280;13360;48.152;-1.788;2023-02-13T02:18:17;103168.34;;;5.27;100.00
25430;BME280;13360;48.152;-1.788;2023-02-13T02:37:11;103220.00;;;5.30;100.00
25430;BME280;13360;48.152;-1.788;2023-02-13T02:48:11;103192.09;;;5.20;100.00
25430;BME280;13360;48.152;-1.788;2023-02-13T02:59:07;103169.72;;;5.10;100.00
25430;BME280;13360;48.152;-1.788;2023-02-13T03:01:55;103162.75;;;5.07;100.00
25430;BME280;13360;48.152;-1.788;2023-02-13T03:04:50;103149.25;;;5.06;100.00
25430;BME280;13360;48.152;-1.788;2023-02-13T03:07:36;103127.09;;;5.01;100.00
25430;BME280;13360;48.152;-1.788;2023-02-13T03:10:11;103128.38;;;5.05;100.00
25430;BME280;13360;48.152;-1.788;2023-02-13T03:13:11;103127.75;;;5.03;100.00
25430;BME280;13360;48.152;-1.788;2023-02-13T03:15:50;103103.66;;;4.98;100.00
25430;BME280;13360;48.152;-1.788;2023-02-13T03:18:38;103108.09;;;4.99;100.00
25430;BME280;13360;48.152;-1.788;2023-02-13T03:33:12;103105.56;;;4.98;100.00
25430;BME280;13360;48.152;-1.788;2023-02-13T03:35:49;103092.91;;;4.97;100.00
25430;BME280;13360;48.152;-1.788;2023-02-13T03:38:54;103088.06;;;4.92;100.00
25430;BME280;13360;48.152;-1.788;2023-02-13T03:41:25;103094.59;;;4.91;100.00
25430;BME280;13360;48.152;-1.788;2023-02-13T03:46:33;103093.94;;;4.89;100.00
25430;BME280;13360;48.152;-1.788;2023-02-13T03:49:02;103086.97;;;4.86;100.00
25430;BME280;13360;48.152;-1.788;2023-02-13T03:55:03;103105.06;;;4.81;100.00
25430;BME280;13360;48.152;-1.788;2023-02-13T03:57:53;103109.28;;;4.83;100.00
25430;BME280;13360;48.152;-1.788;2023-02-13T04:00:43;103096.66;;;4.82;100.00
25430;BME280;13360;48.152;-1.788;2023-02-13T04:03:51;103087.13;;;4.78;100.00
25430;BME280;13360;48.152;-1.788;2023-02-13T04:06:12;103090.66;;;4.72;100.00
25430;BME280;13360;48.152;-1.788;2023-02-13T04:08:39;103092.75;;;4.70;100.00
25430;BME280;13360;48.152;-1.788;2023-02-13T04:11:19;103083.91;;;4.68;100.00
25430;BME280;13360;48.152;-1.788;2023-02-13T04:13:59;103091.28;;;4.68;100.00
25430;BME280;13360;48.152;-1.788;2023-02-13T04:16:34;103094.66;;;4.70;100.00
25430;BME280;13360;48.152;-1.788;2023-02-13T04:19:01;103080.09;;;4.63;100.00
25430;BME280;13360;48.152;-1.788;2023-02-13T04:21:31;103081.72;;;4.57;100.00
25430;BME280;13360;48.152;-1.788;2023-02-13T04:23:57;103085.56;;;4.63;100.00
25430;BME280;13360;48.152;-1.788;2023-02-13T04:26:23;103078.59;;;4.60;100.00
25430;BME280;13360;48.152;-1.788;2023-02-13T04:28:48;103084.72;;;4.62;100.00
25430;BME280;13360;48.152;-1.788;2023-02-13T04:31:14;103076.06;;;4.58;100.00
25430;BME280;13360;48.152;-1.788;2023-02-13T04:33:39;103079.66;;;4.59;100.00
25430;BME280;13360;48.152;-1.788;2023-02-13T04:36:05;103074.56;;;4.56;100.00
25430;BME280;13360;48.152;-1.788;2023-02-13T04:38:30;103070.75;;;4.57;100.00
25430;BME280;13360;48.152;-1.788;2023-02-13T04:40:56;103077.69;;;4.53;100.00
25430;BME280;13360;48.152;-1.788;2023-02-13T04:43:21;103080.44;;;4.53;100.00
25430;BME280;13360;48.152;-1.788;2023-02-13T04:45:47;103077.25;;;4.49;100.00
25430;BME280;13360;48.152;-1.788;2023-02-13T04:48:13;103065.00;;;4.45;100.00
25430;BME280;13360;48.152;-1.788;2023-02-13T04:50:38;103077.22;;;4.43;100.00
25430;BME280;13360;48.152;-1.788;2023-02-13T04:53:04;103071.94;;;4.41;100.00
25430;BME280;13360;48.152;-1.788;2023-02-13T04:55:29;103071.09;;;4.41;100.00
25430;BME280;13360;48.152;-1.788;2023-02-13T04:57:55;103062.69;;;4.42;100.00
25430;BME280;13360;48.152;-1.788;2023-02-13T05:00:25;103056.56;;;4.40;100.00
25430;BME280;13360;48.152;-1.788;2023-02-13T05:02:50;103065.63;;;4.41;100.00
25430;BME280;13360;48.152;-1.788;2023-02-13T05:05:16;103060.53;;;4.38;100.00
25430;BME280;13360;48.152;-1.788;2023-02-13T05:07:42;103059.66;;;4.37;100.00
25430;BME280;13360;48.152;-1.788;2023-02-13T05:10:09;103068.47;;;4.33;100.00
25430;BME280;13360;48.152;-1.788;2023-02-13T05:12:34;103063.41;;;4.29;100.00
25430;BME280;13360;48.152;-1.788;2023-02-13T05:15:00;103060.03;;;4.27;100.00
25430;BME280;13360;48.152;-1.788;2023-02-13T05:17:25;103063.41;;;4.29;100.00
25430;BME280;13360;48.152;-1.788;2023-02-13T05:19:51;103056.25;;;4.28;100.00
25430;BME280;13360;48.152;-1.788;2023-02-13T05:22:16;103054.97;;;4.24;100.00
25430;BME280;13360;48.152;-1.788;2023-02-13T05:25:00;103054.97;;;4.24;100.00
25430;BME280;13360;48.152;-1.788;2023-02-13T05:27:25;103054.56;;;4.27;100.00
25430;BME280;13360;48.152;-1.788;2023-02-13T05:29:51;103043.16;;;4.24;100.00
25430;BME280;13360;48.152;-1.788;2023-02-13T05:32:16;103046.88;;;4.16;100.00
25430;BME280;13360;48.152;-1.788;2023-02-13T05:34:41;103048.31;;;4.12;100.00
25430;BME280;13360;48.152;-1.788;2023-02-13T05:37:07;103064.34;;;4.15;100.00
25430;BME280;13360;48.152;-1.788;2023-02-13T05:39:32;103067.75;;;4.17;100.00
25430;BME280;13360;48.152;-1.788;2023-02-13T05:41:57;103065.47;;;4.21;100.00
25430;BME280;13360;48.152;-1.788;2023-02-13T05:44:23;103055.75;;;4.18;100.00
25430;BME280;13360;48.152;-1.788;2023-02-13T05:46:48;103048.59;;;4.17;100.00
25430;BME280;13360;48.152;-1.788;2023-02-13T05:49:14;103065.03;;;4.17;100.00
25430;BME280;13360;48.152;-1.788;2023-02-13T05:51:40;103058.22;;;4.13;100.00
25430;BME280;13360;48.152;-1.788;2023-02-13T05:54:06;103064.75;;;4.12;100.00
25430;BME280;13360;48.152;-1.788;2023-02-13T05:56:32;103066.44;;;4.13;100.00
25430;BME280;13360;48.152;-1.788;2023-02-13T05:58:57;103062.00;;;4.12;100.00
25430;BME280;13360;48.152;-1.788;2023-02-13T06:01:23;103051.25;;;4.11;100.00
25430;BME280;13360;48.152;-1.788;2023-02-13T06:03:49;103049.78;;;4.08;100.00
25430;BME280;13360;48.152;-1.788;2023-02-13T06:06:15;103052.50;;;4.08;100.00
25430;BME280;13360;48.152;-1.788;2023-02-13T06:08:41;103057.53;;;4.05;100.00
25430;BME280;13360;48.152;-1.788;2023-02-13T06:11:07;103051.63;;;4.01;100.00
25430;BME280;13360;48.152;-1.788;2023-02-13T06:13:33;103051.81;;;4.00;100.00
25430;BME280;13360;48.152;-1.788;2023-02-13T06:15:58;103049.28;;;3.98;100.00
25430;BME280;13360;48.152;-1.788;2023-02-13T06:18:23;103053.22;;;3.95;100.00
25430;BME280;13360;48.152;-1.788;2023-02-13T06:20:49;103049.66;;;3.95;100.00
25430;BME280;13360;48.152;-1.788;2023-02-13T06:23:14;103050.88;;;3.92;100.00
25430;BME280;13360;48.152;-1.788;2023-02-13T06:25:40;103053.81;;;3.91;100.00
25430;BME280;13360;48.152;-1.788;2023-02-13T06:28:05;103046.66;;;3.90;100.00
25430;BME280;13360;48.152;-1.788;2023-02-13T06:30:31;103050.25;;;3.90;100.00
25430;BME280;13360;48.152;-1.788;2023-02-13T06:32:57;103060.34;;;3.90;100.00
25430;BME280;13360;48.152;-1.788;2023-02-13T06:35:22;103059.69;;;3.88;100.00
25430;BME280;13360;48.152;-1.788;2023-02-13T06:37:48;103073.59;;;3.93;100.00
25430;BME280;13360;48.152;-1.788;2023-02-13T06:40:14;103064.38;;;3.94;100.00
25430;BME280;13360;48.152;-1.788;2023-02-13T06:42:43;103061.81;;;3.92;100.00
25430;BME280;13360;48.152;-1.788;2023-02-13T06:45:09;103074.84;;;3.90;100.00
25430;BME280;13360;48.152;-1.788;2023-02-13T06:47:35;103073.16;;;3.89;100.00
25430;BME280;13360;48.152;-1.788;2023-02-13T06:50:00;103070.63;;;3.88;100.00
25430;BME280;13360;48.152;-1.788;2023-02-13T06:52:26;103080.91;;;3.86;100.00
25430;BME280;13360;48.152;-1.788;2023-02-13T06:54:52;103085.34;;;3.87;100.00
25430;BME280;13360;48.152;-1.788;2023-02-13T06:57:17;103088.47;;;3.84;100.00
25430;BME280;13360;48.152;-1.788;2023-02-13T06:59:43;103087.44;;;3.85;100.00
25430;BME280;13360;48.152;-1.788;2023-02-13T07:02:10;103093.28;;;3.82;100.00
25430;BME280;13360;48.152;-1.788;2023-02-13T07:04:36;103104.41;;;3.80;100.00
25430;BME280;13360;48.152;-1.788;2023-02-13T07:07:01;103120.63;;;3.82;100.00
25430;BME280;13360;48.152;-1.788;2023-02-13T07:09:26;103140.41;;;3.84;100.00
25430;BME280;13360;48.152;-1.788;2023-02-13T07:11:52;103153.69;;;3.87;100.00
25430;BME280;13360;48.152;-1.788;2023-02-13T07:14:17;103169.06;;;3.88;100.00
25430;BME280;13360;48.152;-1.788;2023-02-13T07:16:42;103174.53;;;3.88;100.00
25430;BME280;13360;48.152;-1.788;2023-02-13T07:19:08;103191.41;;;3.91;100.00
25430;BME280;13360;48.152;-1.788;2023-02-13T07:21:33;103193.94;;;3.93;100.00
25430;BME280;13360;48.152;-1.788;2023-02-13T07:23:58;103200.25;;;3.93;100.00
25430;BME280;13360;48.152;-1.788;2023-02-13T07:26:24;103199.59;;;3.91;100.00
25430;BME280;13360;48.152;-1.788;2023-02-13T07:28:51;103204.22;;;3.91;100.00
25430;BME280;13360;48.152;-1.788;2023-02-13T07:31:16;103207.81;;;3.91;100.00
25430;BME280;13360;48.152;-1.788;2023-02-13T07:33:41;103211.19;;;3.93;100.00
25430;BME280;13360;48.152;-1.788;2023-02-13T07:36:07;103216.66;;;3.93;100.00
25430;BME280;13360;48.152;-1.788;2023-02-13T07:38:32;103218.53;;;3.93;100.00
25430;BME280;13360;48.152;-1.788;2023-02-13T07:40:59;103229.47;;;3.93;100.00
25430;BME280;13360;48.152;-1.788;2023-02-13T07:43:25;103225.34;;;3.97;100.00
25430;BME280;13360;48.152;-1.788;2023-02-13T07:45:50;103236.28;;;3.97;100.00
25430;BME280;13360;48.152;-1.788;2023-02-13T07:48:21;103238.63;;;4.00;100.00
25430;BME280;13360;48.152;-1.788;2023-02-13T07:50:46;103246.84;;;4.00;100.00
25430;BME280;13360;48.152;-1.788;2023-02-13T07:53:11;103250.69;;;4.06;100.00
25430;BME280;13360;48.152;-1.788;2023-02-13T07:55:37;103259.16;;;4.11;100.00
25430;BME280;13360;48.152;-1.788;2023-02-13T07:58:03;103260.66;;;4.13;100.00
25430;BME280;13360;48.152;-1.788;2023-02-13T08:00:29;103258.69;;;4.07;100.00
25430;BME280;13360;48.152;-1.788;2023-02-13T08:02:54;103261.31;;;4.15;100.00
25430;BME280;13360;48.152;-1.788;2023-02-13T08:05:19;103271.03;;;4.18;100.00
25430;BME280;13360;48.152;-1.788;2023-02-13T08:07:45;103276.78;;;4.23;100.00
25430;BME280;13360;48.152;-1.788;2023-02-13T08:10:12;103277.88;;;4.28;100.00
25430;BME280;13360;48.152;-1.788;2023-02-13T08:12:56;103277.03;;;4.28;100.00
25430;BME280;13360;48.152;-1.788;2023-02-13T08:15:21;103273.91;;;4.31;100.00
25430;BME280;13360;48.152;-1.788;2023-02-13T08:17:48;103275.41;;;4.34;100.00
25430;BME280;13360;48.152;-1.788;2023-02-13T08:20:13;103288.03;;;4.35;100.00
25430;BME280;13360;48.152;-1.788;2023-02-13T08:22:39;103291.28;;;4.38;100.00
25430;BME280;13360;48.152;-1.788;2023-02-13T08:25:06;103292.56;;;4.42;100.00
25430;BME280;13360;48.152;-1.788;2023-02-13T08:27:32;103291.34;;;4.45;100.00
25430;BME280;13360;48.152;-1.788;2023-02-13T08:29:58;103297.91;;;4.50;100.00
25430;BME280;13360;48.152;-1.788;2023-02-13T08:32:24;103305.94;;;4.52;100.00
25430;BME280;13360;48.152;-1.788;2023-02-13T08:34:50;103312.84;;;4.48;100.00
25430;BME280;13360;48.152;-1.788;2023-02-13T08:37:15;103333.09;;;4.53;100.00
25430;BME280;13360;48.152;-1.788;2023-02-13T08:39:41;103342.06;;;4.62;100.00
25430;BME280;13360;48.152;-1.788;2023-02-13T08:42:07;103355.44;;;4.72;100.00
25430;BME280;13360;48.152;-1.788;2023-02-13T08:44:32;103367.84;;;4.53;100.00
25430;BME280;13360;48.152;-1.788;2023-02-13T08:46:58;103393.47;;;4.31;100.00
25430;BME280;13360;48.152;-1.788;2023-02-13T08:49:26;103423.38;;;4.47;100.00
25430;BME280;13360;48.152;-1.788;2023-02-13T08:51:51;103452.56;;;4.40;100.00
25430;BME280;13360;48.152;-1.788;2023-02-13T08:54:16;103467.28;;;4.39;100.00
25430;BME280;13360;48.152;-1.788;2023-02-13T08:56:42;103490.00;;;4.54;100.00
25430;BME280;13360;48.152;-1.788;2023-02-13T08:59:07;103515.66;;;4.53;100.00
25430;BME280;13360;48.152;-1.788;2023-02-13T09:01:33;103534.56;;;4.63;100.00
25430;BME280;13360;48.152;-1.788;2023-02-13T09:03:58;103549.56;;;4.81;100.00
25430;BME280;13360;48.152;-1.788;2023-02-13T09:06:24;103553.03;;;4.90;100.00
25430;BME280;13360;48.152;-1.788;2023-02-13T09:08:51;103562.38;;;4.96;100.00
25430;BME280;13360;48.152;-1.788;2023-02-13T09:11:16;103570.97;;;5.07;100.00
25430;BME280;13360;48.152;-1.788;2023-02-13T09:13:43;103590.69;;;5.17;100.00
25430;BME280;13360;48.152;-1.788;2023-02-13T09:16:10;103592.19;;;5.20;100.00
25430;BME280;13360;48.152;-1.788;2023-02-13T09:18:36;103608.19;;;5.16;100.00
25430;BME280;13360;48.152;-1.788;2023-02-13T09:21:04;103624.44;;;5.18;100.00
25430;BME280;13360;48.152;-1.788;2023-02-13T09:23:32;103630.09;;;5.16;100.00
25430;BME280;13360;48.152;-1.788;2023-02-13T09:26:03;103644.84;;;5.15;100.00
25430;BME280;13360;48.152;-1.788;2023-02-13T09:28:29;103659.47;;;5.37;100.00
25430;BME280;13360;48.152;-1.788;2023-02-13T09:30:55;103653.91;;;5.31;100.00
25430;BME280;13360;48.152;-1.788;2023-02-13T09:33:21;103678.97;;;5.42;100.00
25430;BME280;13360;48.152;-1.788;2023-02-13T09:35:46;103689.69;;;5.59;100.00
25430;BME280;13360;48.152;-1.788;2023-02-13T09:38:11;103690.66;;;5.66;100.00
25430;BME280;13360;48.152;-1.788;2023-02-13T09:43:16;103702.94;;;5.70;100.00
25430;BME280;13360;48.152;-1.788;2023-02-13T09:45:44;103702.16;;;5.76;100.00
25430;BME280;13360;48.152;-1.788;2023-02-13T09:48:21;103707.44;;;5.77;100.00
25430;BME280;13360;48.152;-1.788;2023-02-13T09:50:49;103724.09;;;5.76;100.00
25430;BME280;13360;48.152;-1.788;2023-02-13T09:53:20;103734.22;;;5.75;100.00
25430;BME280;13360;48.152;-1.788;2023-02-13T09:55:53;103734.78;;;5.71;100.00
25430;BME280;13360;48.152;-1.788;2023-02-13T10:01:04;103755.81;;;5.64;100.00
25430;BME280;13360;48.152;-1.788;2023-02-13T10:03:33;103766.31;;;5.90;100.00
25430;BME280;13360;48.152;-1.788;2023-02-13T10:06:24;103791.66;;;6.28;100.00
25430;BME280;13360;48.152;-1.788;2023-02-13T10:09:01;103825.22;;;6.66;100.00
25430;BME280;13360;48.152;-1.788;2023-02-13T10:17:13;103841.50;;;7.31;100.00
25430;BME280;13360;48.152;-1.788;2023-02-13T10:19:45;103840.91;;;7.43;100.00
25430;BME280;13360;48.152;-1.788;2023-02-13T10:22:16;103839.47;;;7.47;100.00
25430;BME280;13360;48.152;-1.788;2023-02-13T10:27:24;103828.78;;;7.30;100.00
25430;BME280;13360;48.152;-1.788;2023-02-13T10:30:04;103837.88;;;7.31;100.00
25430;BME280;13360;48.152;-1.788;2023-02-13T10:35:33;103843.63;;;7.36;100.00
25430;BME280;13360;48.152;-1.788;2023-02-13T10:37:59;103839.84;;;7.37;100.00
25430;BME280;13360;48.152;-1.788;2023-02-13T10:40:37;103782.09;;;7.09;100.00
25430;BME280;13360;48.152;-1.788;2023-02-13T10:43:09;103784.47;;;7.19;100.00
25430;BME280;13360;48.152;-1.788;2023-02-13T10:49:09;103749.00;;;6.96;100.00
25430;BME280;13360;48.152;-1.788;2023-02-13T11:02:47;103794.38;;;7.13;100.00
25430;BME280;13360;48.152;-1.788;2023-02-13T11:05:21;103846.81;;;7.40;100.00
25430;BME280;13360;48.152;-1.788;2023-02-13T11:07:48;103846.66;;;7.48;100.00
25430;BME280;13360;48.152;-1.788;2023-02-13T11:10:17;103843.78;;;7.56;100.00
25430;BME280;13360;48.152;-1.788;2023-02-13T11:12:43;103839.56;;;7.60;100.00
25430;BME280;13360;48.152;-1.788;2023-02-13T11:15:29;103870.31;;;7.70;100.00
25430;BME280;13360;48.152;-1.788;2023-02-13T11:18:12;103833.88;;;7.68;100.00
25430;BME280;13360;48.152;-1.788;2023-02-13T11:20:41;103815.47;;;7.69;100.00
25430;BME280;13360;48.152;-1.788;2023-02-13T11:26:11;103745.16;;;7.53;100.00
25430;BME280;13360;48.152;-1.788;2023-02-13T11:28:43;103748.34;;;7.63;100.00
25430;BME280;13360;48.152;-1.788;2023-02-13T11:33:54;103712.81;;;7.68;100.00
25430;BME280;13360;48.152;-1.788;2023-02-13T11:36:33;103706.53;;;7.74;100.00
25430;BME280;13360;48.152;-1.788;2023-02-13T11:38:58;103708.66;;;7.79;100.00
25430;BME280;13360;48.152;-1.788;2023-02-13T11:41:25;103706.31;;;7.82;100.00
25430;BME280;13360;48.152;-1.788;2023-02-13T11:43:55;103720.31;;;7.87;100.00
25430;BME280;13360;48.152;-1.788;2023-02-13T11:46:27;103704.41;;;7.83;100.00
25430;BME280;13360;48.152;-1.788;2023-02-13T11:49:03;103675.19;;;7.75;100.00
25430;BME280;13360;48.152;-1.788;2023-02-13T11:51:46;103671.59;;;7.75;100.00
25430;BME280;13360;48.152;-1.788;2023-02-13T11:54:46;103684.09;;;7.84;100.00
25430;BME280;13360;48.152;-1.788;2023-02-13T11:57:28;103658.47;;;7.83;100.00
25430;BME280;13360;48.152;-1.788;2023-02-13T11:59:54;103652.81;;;7.91;100.00
25430;BME280;13360;48.152;-1.788;2023-02-13T12:04:48;103637.56;;;7.95;100.00
25430;BME280;13360;48.152;-1.788;2023-02-13T12:07:24;103650.47;;;8.02;100.00
25430;BME280;13360;48.152;-1.788;2023-02-13T12:10:00;103646.88;;;8.08;100.00
25430;BME280;13360;48.152;-1.788;2023-02-13T12:13:11;103633.34;;;8.13;100.00
25430;BME280;13360;48.152;-1.788;2023-02-13T12:15:38;103651.34;;;8.22;100.00
25430;BME280;13360;48.152;-1.788;2023-02-13T12:26:12;103626.63;;;8.42;100.00
25430;BME280;13360;48.152;-1.788;2023-02-13T12:28:56;103613.66;;;8.49;100.00
25430;BME280;13360;48.152;-1.788;2023-02-13T12:31:42;103602.44;;;8.50;100.00
25430;BME280;13360;48.152;-1.788;2023-02-13T12:34:23;103588.88;;;8.55;100.00
25430;BME280;13360;48.152;-1.788;2023-02-13T12:37:59;103586.75;;;8.58;100.00
25430;BME280;13360;48.152;-1.788;2023-02-13T12:40:15;103580.19;;;8.59;100.00
25430;BME280;13360;48.152;-1.788;2023-02-13T12:45:52;103565.13;;;8.61;100.00
25430;BME280;13360;48.152;-1.788;2023-02-13T12:48:39;103559.41;;;8.63;100.00
25430;BME280;13360;48.152;-1.788;2023-02-13T12:51:31;103554.31;;;8.66;100.00
25430;BME280;13360;48.152;-1.788;2023-02-13T13:18:47;103477.47;;;8.96;100.00
25430;BME280;13360;48.152;-1.788;2023-02-13T13:26:35;103453.78;;;9.20;100.00
25430;BME280;13360;48.152;-1.788;2023-02-13T13:29:40;103428.91;;;9.27;100.00
25430;BME280;13360;48.152;-1.788;2023-02-13T13:32:12;103426.94;;;9.34;100.00
25430;BME280;13360;48.152;-1.788;2023-02-13T13:34:40;103415.25;;;9.38;100.00
25430;BME280;13360;48.152;-1.788;2023-02-13T13:37:28;103404.59;;;9.42;100.00
25430;BME280;13360;48.152;-1.788;2023-02-13T13:50:59;103367.41;;;9.69;100.00
25430;BME280;13360;48.152;-1.788;2023-02-13T13:53:25;103355.84;;;9.61;100.00
25430;BME280;13360;48.152;-1.788;2023-02-13T13:58:46;103359.75;;;9.71;100.00
25430;BME280;13360;48.152;-1.788;2023-02-13T14:03:39;103365.28;;;9.71;100.00
25430;BME280;13360;48.152;-1.788;2023-02-13T14:06:11;103384.81;;;9.70;100.00
25430;BME280;13360;48.152;-1.788;2023-02-13T14:13:50;103392.13;;;9.83;100.00
25430;BME280;13360;48.152;-1.788;2023-02-13T14:16:42;103351.19;;;9.98;100.00
25430;BME280;13360;48.152;-1.788;2023-02-13T14:19:38;103352.59;;;10.07;100.00
25430;BME280;13360;48.152;-1.788;2023-02-13T14:24:57;103352.25;;;10.15;100.00
25430;BME280;13360;48.152;-1.788;2023-02-13T14:29:51;103349.03;;;10.18;100.00
25430;BME280;13360;48.152;-1.788;2023-02-13T14:32:19;103330.97;;;10.22;100.00
25430;BME280;13360;48.152;-1.788;2023-02-13T14:34:57;103341.19;;;10.22;100.00
25430;BME280;13360;48.152;-1.788;2023-02-13T14:37:28;103325.25;;;10.17;100.00
25430;BME280;13360;48.152;-1.788;2023-02-13T14:42:35;103389.09;;;10.09;100.00
25430;BME280;13360;48.152;-1.788;2023-02-13T14:45:04;103403.53;;;10.11;100.00
25430;BME280;13360;48.152;-1.788;2023-02-13T14:47:39;103420.09;;;10.11;100.00
25430;BME280;13360;48.152;-1.788;2023-02-13T14:50:15;103437.03;;;10.15;100.00
25430;BME280;13360;48.152;-1.788;2023-02-13T14:52:45;103444.25;;;10.22;100.00
25430;BME280;13360;48.152;-1.788;2023-02-13T14:55:13;103453.53;;;10.28;100.00
25430;BME280;13360;48.152;-1.788;2023-02-13T14:57:46;103441.06;;;10.37;100.00
25430;BME280;13360;48.152;-1.788;2023-02-13T15:00:29;103412.31;;;10.26;100.00
25430;BME280;13360;48.152;-1.788;2023-02-13T15:03:01;103439.56;;;10.16;100.00
25430;BME280;13360;48.152;-1.788;2023-02-13T15:05:32;103479.69;;;10.25;100.00
25430;BME280;13360;48.152;-1.788;2023-02-13T15:08:05;103474.09;;;10.32;100.00
25430;BME280;13360;48.152;-1.788;2023-02-13T15:10:44;103464.19;;;10.24;100.00
25430;BME280;13360;48.152;-1.788;2023-02-13T15:13:16;103475.63;;;10.28;100.00
25430;BME280;13360;48.152;-1.788;2023-02-13T15:15:44;103477.38;;;10.22;100.00
25430;BME280;13360;48.152;-1.788;2023-02-13T15:18:18;103488.44;;;10.22;100.00
25430;BME280;13360;48.152;-1.788;2023-02-13T15:20:45;103466.63;;;10.32;100.00
25430;BME280;13360;48.152;-1.788;2023-02-13T15:23:20;103454.97;;;10.30;100.00
25430;BME280;13360;48.152;-1.788;2023-02-13T15:25:46;103450.53;;;10.29;100.00
25430;BME280;13360;48.152;-1.788;2023-02-13T15:28:19;103440.94;;;10.32;100.00
25430;BME280;13360;48.152;-1.788;2023-02-13T15:31:20;103448.16;;;10.33;100.00
25430;BME280;13360;48.152;-1.788;2023-02-13T15:33:47;103449.91;;;10.46;100.00
25430;BME280;13360;48.152;-1.788;2023-02-13T15:36:39;103432.41;;;10.52;100.00